Hlavní strana
METAR-TAF:

METAR-TAF

Letiště :

Vardø, Norsko

zeměpisná šířka: 70-21N, zeměpisná délka: 031-03E, výška: 12 m

Aktuální stav počasí

Zpráva byla vytvořena před 37 minutami, v 05:50 UTC
Jihojihovýchodní vítr 5 kt
Teplota 8°C
Vlhkost vzduchu 100%
Tlak 987 hPa
Viditelnost: 6000 m
mlha v blízkosti

METAR: ENSS 060550Z 15005KT 6000 VCFG 0VC002 08/08 Q0987 RMK WIND 500FT 13006KT

Čas: 08:27 (06:27 UTC)


TAF: chybějící

Stav a předpovědi počasí z více než 4 000 letišť (zprávy METAR a TAF).

Červené a žluté tečky na mapě představují dostupné meteorologické stanice.

Když kurzor umístíte na tečku, zobrazí se název stanice.

Pak kliknutím zobrazíte stav a předpověď počasí.

Chcete-li změnit mapu, kliknutím na zelené tlačítko se znaménkem +mapu přiblížíte, kliknutím na zelené tlačítko se znaménkem – mapu oddálíte a kliknutím na zelené šipky přejdete na sousední mapy.


METAR-TAF: